Time;durP1;ratioP1;P1;durP2;ratioP2;P2;SDS_P1;SDS_P2;PMS_P1;PMS_P2;Temp;Humidity;BMP_temperature;BMP_pressure;BME280_temperature;BME280_humidity;BME280_pressure;Samples;Min_cycle;Max_cycle;Signal;HPM_P1;HPM_P2
2020/12/02 00:02:11;;;;;;;84.13;44.92;;;;;;;;;;5035318;28;20121;-61
2020/12/02 00:04:37;;;;;;;90.53;45.35;;;;;;;;;;5035693;28;20017;-61
2020/12/02 00:07:03;;;;;;;89.07;44.20;;;;;;;;;;5034336;28;20018;-61
2020/12/02 00:09:29;;;;;;;89.32;43.92;;;;;;;;;;5035575;28;20040;-61
2020/12/02 00:11:54;;;;;;;89.38;44.80;;;;;;;;;;5034144;28;20056;-61
2020/12/02 00:14:25;;;;;;;87.53;45.67;;;;;;;;;;5036395;28;20408;-61
2020/12/02 00:16:51;;;;;;;87.47;43.75;;;;;;;;;;5035293;28;20483;-61
2020/12/02 00:19:16;;;;;;;85.85;44.78;;;;;;;;;;5053254;28;20025;-62
2020/12/02 00:21:56;;;;;;;90.32;45.88;;;;;;;;;;5055258;28;20031;-62
2020/12/02 00:24:23;;;;;;;86.07;43.90;;;;;;;;;;5055300;28;20044;-62
2020/12/02 00:26:48;;;;;;;85.60;43.83;;;;;;;;;;5055186;28;20029;-62
2020/12/02 00:29:14;;;;;;;102.25;49.85;;;;;;;;;;5055056;28;20037;-62
2020/12/02 00:31:39;;;;;;;112.65;59.47;;;;;;;;;;5054656;28;20418;-62
2020/12/02 00:34:05;;;;;;;88.35;45.92;;;;;;;;;;5048140;28;20037;-61
2020/12/02 00:36:30;;;;;;;89.45;43.95;;;;;;;;;;5033567;28;20025;-62
2020/12/02 00:38:56;;;;;;;86.18;43.92;;;;;;;;;;5034647;28;20080;-62
2020/12/02 00:41:21;;;;;;;87.63;44.35;;;;;;;;;;5034628;28;20017;-61
2020/12/02 00:43:47;;;;;;;83.93;43.15;;;;;;;;;;5034562;28;20018;-61
2020/12/02 00:46:13;;;;;;;87.03;43.70;;;;;;;;;;5034646;28;20071;-61
2020/12/02 00:48:42;;;;;;;88.50;43.28;;;;;;;;;;5034767;28;20037;-61
2020/12/02 00:51:09;;;;;;;80.50;40.50;;;;;;;;;;5034448;28;20387;-61
2020/12/02 00:53:35;;;;;;;77.18;40.17;;;;;;;;;;5034627;28;20075;-61
2020/12/02 00:56:01;;;;;;;76.78;39.70;;;;;;;;;;5033028;28;20468;-61
2020/12/02 00:58:36;;;;;;;71.47;39.15;;;;;;;;;;5033328;28;20379;-61
2020/12/02 01:01:03;;;;;;;76.22;38.13;;;;;;;;;;5033920;28;20029;-61
2020/12/02 01:03:29;;;;;;;73.88;38.80;;;;;;;;;;5034415;28;20132;-61
2020/12/02 01:05:56;;;;;;;77.10;39.97;;;;;;;;;;5034260;28;20033;-61
2020/12/02 01:08:23;;;;;;;74.25;39.17;;;;;;;;;;5034169;28;20013;-61
2020/12/02 01:10:51;;;;;;;72.82;38.50;;;;;;;;;;5034291;28;20086;-61
2020/12/02 01:13:17;;;;;;;70.80;37.13;;;;;;;;;;5034235;28;20018;-61
2020/12/02 01:15:43;;;;;;;77.68;39.47;;;;;;;;;;5032826;28;20502;-60
2020/12/02 01:18:14;;;;;;;71.18;36.53;;;;;;;;;;5034425;28;20490;-61
2020/12/02 01:20:40;;;;;;;73.20;37.67;;;;;;;;;;5034167;28;20025;-61
2020/12/02 01:23:07;;;;;;;68.75;37.50;;;;;;;;;;5032849;28;20360;-61
2020/12/02 01:25:33;;;;;;;69.30;36.13;;;;;;;;;;5033830;28;20022;-61
2020/12/02 01:28:00;;;;;;;73.95;37.00;;;;;;;;;;5033970;28;20422;-61
2020/12/02 01:30:26;;;;;;;72.78;36.97;;;;;;;;;;5032768;28;20022;-61
2020/12/02 01:32:52;;;;;;;65.18;36.00;;;;;;;;;;5033986;28;20013;-61
2020/12/02 01:35:20;;;;;;;69.35;35.63;;;;;;;;;;5034179;28;20045;-61
2020/12/02 01:37:46;;;;;;;65.55;35.67;;;;;;;;;;5033702;28;20112;-61
2020/12/02 01:40:39;;;;;;;66.75;35.50;;;;;;;;;;5032225;28;20025;-61
2020/12/02 01:43:09;;;;;;;62.28;33.40;;;;;;;;;;5015424;28;20033;-61
2020/12/02 01:45:42;;;;;;;56.40;32.53;;;;;;;;;;5033983;28;20029;-61
2020/12/02 01:48:20;;;;;;;65.70;34.63;;;;;;;;;;5033549;28;20356;-61
2020/12/02 01:50:56;;;;;;;59.28;33.92;;;;;;;;;;5033617;28;20021;-61
2020/12/02 01:53:45;;;;;;;59.97;32.50;;;;;;;;;;5033314;28;20120;-61
2020/12/02 01:56:16;;;;;;;57.60;32.67;;;;;;;;;;5032866;28;20132;-61
2020/12/02 01:58:48;;;;;;;58.25;32.45;;;;;;;;;;5034051;28;20501;-62
2020/12/02 02:01:27;;;;;;;56.47;31.83;;;;;;;;;;5033144;28;20088;-62
2020/12/02 02:03:55;;;;;;;57.13;32.50;;;;;;;;;;5033338;28;20036;-62
2020/12/02 02:06:25;;;;;;;57.03;31.20;;;;;;;;;;5033716;28;20469;-62
2020/12/02 02:08:51;;;;;;;58.88;32.58;;;;;;;;;;5033349;28;20041;-62
2020/12/02 02:11:18;;;;;;;53.92;31.33;;;;;;;;;;5033426;28;20021;-62
2020/12/02 02:13:47;;;;;;;56.90;31.95;;;;;;;;;;5032193;28;20029;-62
2020/12/02 02:16:16;;;;;;;55.78;33.00;;;;;;;;;;5032275;28;20025;-62
2020/12/02 02:18:42;;;;;;;58.00;32.10;;;;;;;;;;5033270;28;20090;-62
2020/12/02 02:21:10;;;;;;;56.92;31.88;;;;;;;;;;5033483;28;20056;-62
2020/12/02 02:23:36;;;;;;;56.28;33.03;;;;;;;;;;5033269;28;20116;-61
2020/12/02 02:26:13;;;;;;;53.72;31.95;;;;;;;;;;5033164;28;20111;-61
2020/12/02 02:28:47;;;;;;;55.00;32.20;;;;;;;;;;5033325;28;20025;-61
2020/12/02 02:31:15;;;;;;;51.97;31.42;;;;;;;;;;5033298;28;20057;-62
2020/12/02 02:33:41;;;;;;;47.95;29.65;;;;;;;;;;5032001;28;20467;-61
2020/12/02 02:36:11;;;;;;;51.42;30.73;;;;;;;;;;5032992;28;20072;-62
2020/12/02 02:38:37;;;;;;;50.28;29.58;;;;;;;;;;5031967;28;20041;-62
2020/12/02 02:41:02;;;;;;;51.35;31.55;;;;;;;;;;5033253;28;20079;-62
2020/12/02 02:43:28;;;;;;;51.92;30.70;;;;;;;;;;5032420;28;20474;-62
2020/12/02 02:45:55;;;;;;;54.63;31.92;;;;;;;;;;5033448;28;20033;-61
2020/12/02 02:48:21;;;;;;;53.80;31.00;;;;;;;;;;5031693;28;20376;-62
2020/12/02 02:50:46;;;;;;;50.25;31.90;;;;;;;;;;5031569;28;20037;-62
2020/12/02 02:53:18;;;;;;;52.22;31.60;;;;;;;;;;5033507;28;20032;-62
2020/12/02 02:55:44;;;;;;;53.60;32.03;;;;;;;;;;5036612;28;20033;-62
2020/12/02 02:58:09;;;;;;;48.75;31.08;;;;;;;;;;5037056;28;20474;-62
2020/12/02 03:00:35;;;;;;;51.40;31.73;;;;;;;;;;5036247;28;20059;-62
2020/12/02 03:03:01;;;;;;;53.80;31.48;;;;;;;;;;5036582;28;20021;-62
2020/12/02 03:05:28;;;;;;;52.35;31.10;;;;;;;;;;5036556;28;20032;-62
2020/12/02 03:07:58;;;;;;;56.20;31.73;;;;;;;;;;5035271;28;20044;-62
2020/12/02 03:10:26;;;;;;;55.42;31.45;;;;;;;;;;5037142;28;20037;-62
2020/12/02 03:12:53;;;;;;;51.75;30.95;;;;;;;;;;5036594;28;20018;-62
2020/12/02 03:15:19;;;;;;;53.17;31.70;;;;;;;;;;5036453;28;20364;-61
2020/12/02 03:17:44;;;;;;;53.83;32.53;;;;;;;;;;5035036;28;20099;-61
2020/12/02 03:20:13;;;;;;;54.80;32.67;;;;;;;;;;5036247;28;20025;-61
2020/12/02 03:22:38;;;;;;;52.58;31.00;;;;;;;;;;5036531;28;20028;-61
2020/12/02 03:25:04;;;;;;;53.80;32.47;;;;;;;;;;5036312;28;20025;-61
2020/12/02 03:27:30;;;;;;;53.17;31.38;;;;;;;;;;5036068;28;20021;-61
2020/12/02 03:29:55;;;;;;;54.33;31.83;;;;;;;;;;5036111;28;20041;-61
2020/12/02 03:32:21;;;;;;;55.70;31.67;;;;;;;;;;5035942;28;20025;-61
2020/12/02 03:34:47;;;;;;;64.43;37.42;;;;;;;;;;5035882;28;20025;-61
2020/12/02 03:37:13;;;;;;;61.70;38.13;;;;;;;;;;5036012;28;20377;-61
2020/12/02 03:39:39;;;;;;;71.22;49.75;;;;;;;;;;5035527;28;20037;-61
2020/12/02 03:42:05;;;;;;;60.85;37.00;;;;;;;;;;5035929;28;20364;-61
2020/12/02 03:44:31;;;;;;;68.43;39.75;;;;;;;;;;5035935;28;20061;-61
2020/12/02 03:46:57;;;;;;;207.48;132.18;;;;;;;;;;5035695;28;20021;-61
2020/12/02 03:49:22;;;;;;;107.00;67.55;;;;;;;;;;5035729;28;20040;-61
2020/12/02 03:51:48;;;;;;;151.82;110.63;;;;;;;;;;5035958;28;20021;-61
2020/12/02 03:54:13;;;;;;;59.95;38.38;;;;;;;;;;5034370;28;20040;-61
2020/12/02 03:56:39;;;;;;;66.10;41.60;;;;;;;;;;5035660;28;20460;-61
2020/12/02 03:59:05;;;;;;;55.38;30.83;;;;;;;;;;5035757;28;20057;-61
2020/12/02 04:01:30;;;;;;;61.58;36.03;;;;;;;;;;5035090;28;20037;-62
2020/12/02 04:03:56;;;;;;;56.35;30.90;;;;;;;;;;5035606;28;20099;-62
2020/12/02 04:06:21;;;;;;;56.45;32.10;;;;;;;;;;5035052;28;20107;-62
2020/12/02 04:08:47;;;;;;;63.60;32.65;;;;;;;;;;5041323;28;20036;-62
2020/12/02 04:11:13;;;;;;;56.63;31.27;;;;;;;;;;5055196;28;20021;-62
2020/12/02 04:13:38;;;;;;;60.45;32.60;;;;;;;;;;5037032;28;20033;-62
2020/12/02 04:16:04;;;;;;;66.00;34.67;;;;;;;;;;5050717;28;20071;-62
2020/12/02 04:18:30;;;;;;;60.05;32.38;;;;;;;;;;5035436;28;20079;-63
2020/12/02 04:20:55;;;;;;;64.60;34.97;;;;;;;;;;5035235;28;20135;-62
2020/12/02 04:23:21;;;;;;;60.25;33.15;;;;;;;;;;5034800;28;20033;-62
2020/12/02 04:25:46;;;;;;;68.72;37.80;;;;;;;;;;5034872;28;20018;-61
2020/12/02 04:28:12;;;;;;;65.32;38.47;;;;;;;;;;5035168;28;20021;-62
2020/12/02 04:30:38;;;;;;;64.03;35.95;;;;;;;;;;5034977;28;20021;-62
2020/12/02 04:33:03;;;;;;;67.40;35.45;;;;;;;;;;5033459;28;20468;-62
2020/12/02 04:35:29;;;;;;;62.13;35.13;;;;;;;;;;5032987;28;20044;-62
2020/12/02 04:37:54;;;;;;;62.17;33.70;;;;;;;;;;5034961;28;20459;-62
2020/12/02 04:40:28;;;;;;;62.45;34.72;;;;;;;;;;5034553;28;20021;-62
2020/12/02 04:43:00;;;;;;;62.72;35.20;;;;;;;;;;5034820;28;20025;-62
2020/12/02 04:45:29;;;;;;;61.75;34.65;;;;;;;;;;5034951;28;20132;-62
2020/12/02 04:47:56;;;;;;;61.08;38.03;;;;;;;;;;5034782;28;20025;-62
2020/12/02 04:50:24;;;;;;;60.10;35.45;;;;;;;;;;5034827;28;20033;-62
2020/12/02 04:53:26;;;;;;;62.65;34.53;;;;;;;;;;5034499;28;20021;-62
2020/12/02 04:55:54;;;;;;;64.82;36.40;;;;;;;;;;5032228;28;20037;-62
2020/12/02 04:58:36;;;;;;;58.97;34.33;;;;;;;;;;5033970;28;20034;-62
2020/12/02 05:01:13;;;;;;;57.17;35.78;;;;;;;;;;5033991;28;20060;-62
2020/12/02 05:03:58;;;;;;;58.20;35.08;;;;;;;;;;5034452;28;20032;-62
2020/12/02 05:06:31;;;;;;;59.72;33.83;;;;;;;;;;5034381;28;20079;-62
2020/12/02 05:09:11;;;;;;;59.15;33.80;;;;;;;;;;5034462;28;20480;-62
2020/12/02 05:11:38;;;;;;;58.85;34.17;;;;;;;;;;5034372;28;20480;-62
2020/12/02 05:14:04;;;;;;;54.80;33.03;;;;;;;;;;5034378;28;20044;-62
2020/12/02 05:16:30;;;;;;;55.10;32.30;;;;;;;;;;5034264;28;20116;-62
2020/12/02 05:18:59;;;;;;;58.22;34.35;;;;;;;;;;5032440;28;20469;-62
2020/12/02 05:21:28;;;;;;;53.58;31.45;;;;;;;;;;5033508;28;20041;-62
2020/12/02 05:24:17;;;;;;;54.55;31.60;;;;;;;;;;5033766;28;20132;-62
2020/12/02 05:26:44;;;;;;;56.50;34.65;;;;;;;;;;5032780;28;20041;-62
2020/12/02 05:29:32;;;;;;;53.03;31.75;;;;;;;;;;5032116;28;20029;-62
2020/12/02 05:32:01;;;;;;;52.25;32.10;;;;;;;;;;5032714;28;20045;-62
2020/12/02 05:34:28;;;;;;;56.15;32.55;;;;;;;;;;5033834;28;20044;-62
2020/12/02 05:36:54;;;;;;;54.65;33.38;;;;;;;;;;5033887;28;20036;-62
2020/12/02 05:39:23;;;;;;;55.72;33.30;;;;;;;;;;5033952;28;20017;-62
2020/12/02 05:41:51;;;;;;;62.72;37.60;;;;;;;;;;5034000;28;20021;-63
2020/12/02 05:44:25;;;;;;;59.80;35.42;;;;;;;;;;5033494;28;20022;-62
2020/12/02 05:46:56;;;;;;;68.47;34.10;;;;;;;;;;5033555;28;20025;-62
2020/12/02 05:49:44;;;;;;;89.25;38.53;;;;;;;;;;5033479;28;20029;-62
2020/12/02 05:52:29;;;;;;;62.60;34.70;;;;;;;;;;5033619;28;20533;-61
2020/12/02 05:55:15;;;;;;;75.38;35.63;;;;;;;;;;5033884;28;20033;-61
2020/12/02 05:57:51;;;;;;;74.10;36.03;;;;;;;;;;5033261;28;20044;-62
2020/12/02 06:00:17;;;;;;;60.35;32.70;;;;;;;;;;5033315;28;20029;-62
2020/12/02 06:02:43;;;;;;;54.83;30.88;;;;;;;;;;5033318;28;20044;-62
2020/12/02 06:05:13;;;;;;;54.75;29.45;;;;;;;;;;5033180;28;20033;-62
2020/12/02 06:07:47;;;;;;;79.18;34.22;;;;;;;;;;5033490;28;20039;-62
2020/12/02 06:10:13;;;;;;;77.40;34.85;;;;;;;;;;5033803;28;20058;-62
2020/12/02 06:12:40;;;;;;;55.35;31.35;;;;;;;;;;5033476;28;20593;-62
2020/12/02 06:15:16;;;;;;;55.47;32.85;;;;;;;;;;5033169;28;20040;-62
2020/12/02 06:17:41;;;;;;;47.28;29.17;;;;;;;;;;5033325;28;20040;-62
2020/12/02 06:20:07;;;;;;;45.28;27.98;;;;;;;;;;5033063;28;20013;-62
2020/12/02 06:22:53;;;;;;;55.30;32.38;;;;;;;;;;5033280;28;20030;-62
2020/12/02 06:25:37;;;;;;;78.40;40.53;;;;;;;;;;5032896;28;20407;-62
2020/12/02 06:28:02;;;;;;;86.93;36.03;;;;;;;;;;5033349;28;20076;-62
2020/12/02 06:30:27;;;;;;;77.82;34.85;;;;;;;;;;5037382;28;20024;-62
2020/12/02 06:32:57;;;;;;;79.50;36.15;;;;;;;;;;5039511;28;20032;-61
2020/12/02 06:35:23;;;;;;;69.40;34.00;;;;;;;;;;5036932;28;20028;-62
2020/12/02 06:38:12;;;;;;;58.58;30.02;;;;;;;;;;5035924;28;20302;-61
2020/12/02 06:41:10;;;;;;;61.13;30.95;;;;;;;;;;5036650;28;20033;-62
2020/12/02 06:43:46;;;;;;;70.38;32.30;;;;;;;;;;5035607;28;20041;-62
2020/12/02 06:46:13;;;;;;;69.05;31.73;;;;;;;;;;5037196;28;20025;-62
2020/12/02 06:48:39;;;;;;;73.50;33.35;;;;;;;;;;5036866;28;20025;-62
2020/12/02 06:51:10;;;;;;;67.50;35.72;;;;;;;;;;5036817;28;20480;-62
2020/12/02 06:53:36;;;;;;;55.20;32.70;;;;;;;;;;5035746;28;20043;-62
2020/12/02 06:56:03;;;;;;;58.22;33.20;;;;;;;;;;5036184;28;20116;-62
2020/12/02 06:58:29;;;;;;;54.30;31.33;;;;;;;;;;5036741;28;20022;-62
2020/12/02 07:00:56;;;;;;;49.40;29.67;;;;;;;;;;5035002;28;20036;-62
2020/12/02 07:03:26;;;;;;;52.20;29.45;;;;;;;;;;5036761;28;20018;-62
2020/12/02 07:06:05;;;;;;;41.70;26.33;;;;;;;;;;5036691;28;20025;-62
2020/12/02 07:08:32;;;;;;;39.88;25.88;;;;;;;;;;5036985;28;20036;-62
2020/12/02 07:11:04;;;;;;;41.67;27.00;;;;;;;;;;5056375;28;20021;-62
2020/12/02 07:13:32;;;;;;;43.33;26.10;;;;;;;;;;5056284;28;20024;-62
2020/12/02 07:15:58;;;;;;;40.45;25.25;;;;;;;;;;5056253;28;20464;-62
2020/12/02 07:18:32;;;;;;;41.13;25.27;;;;;;;;;;5055807;28;20029;-68
2020/12/02 07:21:05;;;;;;;45.03;27.65;;;;;;;;;;5054980;28;20039;-68
2020/12/02 07:23:32;;;;;;;44.60;26.98;;;;;;;;;;5055638;28;20033;-68
2020/12/02 07:26:01;;;;;;;43.97;25.98;;;;;;;;;;5055862;28;20021;-69
2020/12/02 07:28:27;;;;;;;42.00;26.52;;;;;;;;;;5056348;28;20078;-69
2020/12/02 07:30:56;;;;;;;49.83;29.55;;;;;;;;;;5038061;28;20111;-69
2020/12/02 07:33:32;;;;;;;47.85;30.88;;;;;;;;;;5054913;28;20033;-68
2020/12/02 07:36:07;;;;;;;48.38;31.00;;;;;;;;;;5056071;28;20025;-68
2020/12/02 07:38:33;;;;;;;48.30;30.70;;;;;;;;;;5054643;28;20017;-68
2020/12/02 07:41:16;;;;;;;44.00;28.80;;;;;;;;;;5054553;28;20017;-68
2020/12/02 07:43:44;;;;;;;46.42;28.27;;;;;;;;;;5055531;28;20033;-68
2020/12/02 07:46:11;;;;;;;43.83;26.95;;;;;;;;;;5054701;28;20021;-68
2020/12/02 07:48:38;;;;;;;41.15;26.05;;;;;;;;;;5055671;28;20043;-67
2020/12/02 07:51:09;;;;;;;39.53;25.58;;;;;;;;;;5054480;28;20027;-67
2020/12/02 07:53:54;;;;;;;41.17;25.02;;;;;;;;;;5055535;28;20032;-68
2020/12/02 07:56:31;;;;;;;38.83;23.73;;;;;;;;;;5054182;28;20040;-68
2020/12/02 07:59:09;;;;;;;37.35;23.85;;;;;;;;;;5055503;28;20059;-68
2020/12/02 08:01:38;;;;;;;34.10;22.92;;;;;;;;;;5054771;28;20041;-68
2020/12/02 08:04:13;;;;;;;35.35;22.88;;;;;;;;;;5055335;28;20033;-68
2020/12/02 08:06:45;;;;;;;35.08;23.13;;;;;;;;;;5054170;28;20037;-68
2020/12/02 08:09:11;;;;;;;35.47;23.33;;;;;;;;;;5055505;28;20024;-68
2020/12/02 08:11:57;;;;;;;34.53;22.00;;;;;;;;;;5054250;28;20097;-68
2020/12/02 08:14:29;;;;;;;30.15;18.75;;;;;;;;;;5055157;28;20465;-69
2020/12/02 08:17:12;;;;;;;32.58;21.13;;;;;;;;;;5053202;28;20235;-72
2020/12/02 08:19:43;;;;;;;35.20;22.42;;;;;;;;;;5052402;28;20021;-73
2020/12/02 08:22:16;;;;;;;34.63;21.35;;;;;;;;;;5053660;28;20090;-73
2020/12/02 08:24:43;;;;;;;39.75;25.02;;;;;;;;;;5052122;28;20103;-73
2020/12/02 08:27:10;;;;;;;38.00;25.00;;;;;;;;;;5052487;28;20407;-73
2020/12/02 08:29:41;;;;;;;32.60;20.80;;;;;;;;;;5054640;28;20025;-71
2020/12/02 08:32:28;;;;;;;31.98;21.63;;;;;;;;;;5053138;28;20400;-71
2020/12/02 08:34:54;;;;;;;35.33;23.55;;;;;;;;;;5054575;28;20044;-71
2020/12/02 08:37:20;;;;;;;33.78;20.50;;;;;;;;;;5052964;28;20186;-71
2020/12/02 08:39:48;;;;;;;89.85;50.03;;;;;;;;;;5053182;28;20025;-72
2020/12/02 08:42:42;;;;;;;80.47;43.87;;;;;;;;;;5054410;28;20478;-71
2020/12/02 08:45:19;;;;;;;44.67;26.73;;;;;;;;;;5053415;28;20033;-72
2020/12/02 08:47:56;;;;;;;42.08;25.38;;;;;;;;;;5054192;28;20115;-72
2020/12/02 08:50:24;;;;;;;34.75;22.63;;;;;;;;;;5054210;28;20166;-72
2020/12/02 08:52:51;;;;;;;31.80;20.15;;;;;;;;;;5054057;28;20025;-72
2020/12/02 08:55:18;;;;;;;33.90;21.27;;;;;;;;;;5054026;28;20485;-72
2020/12/02 08:57:43;;;;;;;28.00;19.38;;;;;;;;;;5052802;28;20064;-73
2020/12/02 09:00:12;;;;;;;30.52;20.17;;;;;;;;;;5054031;28;20086;-72
2020/12/02 09:02:41;;;;;;;31.50;20.10;;;;;;;;;;5053843;28;20047;-72
2020/12/02 09:05:07;;;;;;;33.03;20.65;;;;;;;;;;5052753;28;20032;-72
2020/12/02 09:07:37;;;;;;;36.17;24.33;;;;;;;;;;5053865;28;20605;-73
2020/12/02 09:10:06;;;;;;;55.53;35.53;;;;;;;;;;5053906;28;20032;-72
2020/12/02 09:12:35;;;;;;;49.33;32.22;;;;;;;;;;5053926;28;20087;-72
2020/12/02 09:15:01;;;;;;;40.53;26.35;;;;;;;;;;5052670;28;20017;-73
2020/12/02 09:17:29;;;;;;;35.38;23.73;;;;;;;;;;5053881;28;20033;-73
2020/12/02 09:19:55;;;;;;;30.75;20.50;;;;;;;;;;5052379;28;20025;-73
2020/12/02 09:22:23;;;;;;;35.65;23.90;;;;;;;;;;5053580;28;20074;-73
2020/12/02 09:24:49;;;;;;;32.92;22.08;;;;;;;;;;5052371;28;20020;-73
2020/12/02 09:27:16;;;;;;;41.00;29.42;;;;;;;;;;5053440;28;20079;-73
2020/12/02 09:29:43;;;;;;;38.30;23.35;;;;;;;;;;5053372;28;20021;-73
2020/12/02 09:32:09;;;;;;;32.17;21.02;;;;;;;;;;5053588;28;20081;-73
2020/12/02 09:34:35;;;;;;;30.83;20.20;;;;;;;;;;5035478;28;20111;-73
2020/12/02 09:37:01;;;;;;;35.85;21.80;;;;;;;;;;5035496;28;20127;-72
2020/12/02 09:39:30;;;;;;;34.65;22.27;;;;;;;;;;5035697;28;20020;-72
2020/12/02 09:42:09;;;;;;;36.40;25.08;;;;;;;;;;5053476;28;20035;-72
2020/12/02 09:45:01;;;;;;;30.63;21.35;;;;;;;;;;5035912;28;20561;-72
2020/12/02 09:47:27;;;;;;;54.65;29.65;;;;;;;;;;5036367;28;20073;-72
2020/12/02 09:49:53;;;;;;;85.85;38.22;;;;;;;;;;5053238;28;20056;-72
2020/12/02 09:52:27;;;;;;;71.05;33.30;;;;;;;;;;5051932;28;20052;-72
2020/12/02 09:54:53;;;;;;;34.25;21.80;;;;;;;;;;5053192;28;20025;-71
2020/12/02 09:57:26;;;;;;;32.50;21.27;;;;;;;;;;5035789;28;20021;-71
2020/12/02 09:59:54;;;;;;;40.22;22.40;;;;;;;;;;5051433;28;20191;-71
2020/12/02 10:05:20;;;;;;;43.60;24.83;;;;;;;;;;5052942;28;20029;-71
2020/12/02 10:07:58;;;;;;;41.40;22.08;;;;;;;;;;5052157;28;20088;-71
2020/12/02 10:10:45;;;;;;;49.08;23.45;;;;;;;;;;5051376;28;20064;-72
2020/12/02 10:13:17;;;;;;;53.75;24.48;;;;;;;;;;5053228;28;20033;-71
2020/12/02 10:15:48;;;;;;;47.17;24.05;;;;;;;;;;5053303;28;20609;-71
2020/12/02 10:18:33;;;;;;;34.65;23.83;;;;;;;;;;5085591;28;20495;-71
2020/12/02 10:21:04;;;;;;;32.13;20.98;;;;;;;;;;5052243;28;20033;-72
2020/12/02 10:23:30;;;;;;;33.55;23.05;;;;;;;;;;5053148;28;20037;-70
2020/12/02 10:26:24;;;;;;;38.30;22.88;;;;;;;;;;5052364;28;20028;-71
2020/12/02 10:28:55;;;;;;;31.10;22.33;;;;;;;;;;5035317;28;20136;-71
2020/12/02 10:31:54;;;;;;;29.70;20.25;;;;;;;;;;5052876;28;20433;-71
2020/12/02 10:34:23;;;;;;;46.67;26.05;;;;;;;;;;5040253;28;20048;-71
2020/12/02 10:36:53;;;;;;;31.52;20.70;;;;;;;;;;5051123;28;20029;-71
2020/12/02 10:39:21;;;;;;;;;;;;;;;;;;5051724;28;20021;-72
2020/12/02 10:41:57;;;;;;;44.92;24.38;;;;;;;;;;5052415;28;19932;-71
2020/12/02 10:44:27;;;;;;;44.97;25.40;;;;;;;;;;5052787;28;20025;-72
2020/12/02 10:47:02;;;;;;;32.42;20.92;;;;;;;;;;5052247;28;20041;-66
2020/12/02 10:49:30;;;;;;;27.27;18.48;;;;;;;;;;5052684;28;20037;-66
2020/12/02 10:51:57;;;;;;;30.85;20.27;;;;;;;;;;5051858;28;20051;-66
2020/12/02 10:54:34;;;;;;;29.05;19.75;;;;;;;;;;5051569;28;20468;-67
2020/12/02 10:57:06;;;;;;;32.25;20.55;;;;;;;;;;5052852;28;20112;-66
2020/12/02 10:59:31;;;;;;;34.20;21.85;;;;;;;;;;5052613;28;20017;-66
2020/12/02 11:01:57;;;;;;;30.55;20.25;;;;;;;;;;5052462;28;20040;-66
2020/12/02 11:04:24;;;;;;;31.40;20.73;;;;;;;;;;5052767;28;20116;-66
2020/12/02 11:07:12;;;;;;;32.53;20.95;;;;;;;;;;5051641;28;20112;-73
2020/12/02 11:09:49;;;;;;;38.80;24.95;;;;;;;;;;5053124;28;20228;-72
2020/12/02 11:12:27;;;;;;;30.20;19.60;;;;;;;;;;5052987;28;20037;-72
2020/12/02 11:15:03;;;;;;;28.30;19.15;;;;;;;;;;5052713;28;20440;-72
2020/12/02 11:17:47;;;;;;;30.40;20.40;;;;;;;;;;5055170;28;20033;-72
2020/12/02 11:20:17;;;;;;;32.60;22.48;;;;;;;;;;5056312;28;20452;-72
2020/12/02 11:22:42;;;;;;;32.38;23.08;;;;;;;;;;5056357;28;20347;-72
2020/12/02 11:25:30;;;;;;;34.22;24.83;;;;;;;;;;5056621;28;20100;-72
2020/12/02 11:27:57;;;;;;;29.98;20.00;;;;;;;;;;5054711;28;20426;-73
2020/12/02 11:30:22;;;;;;;34.40;21.67;;;;;;;;;;5055147;28;20036;-72
2020/12/02 11:33:06;;;;;;;35.42;22.52;;;;;;;;;;5056061;28;20040;-73
2020/12/02 11:35:39;;;;;;;41.10;25.35;;;;;;;;;;5053879;28;20031;-73
2020/12/02 11:38:16;;;;;;;32.42;21.98;;;;;;;;;;5056272;28;20120;-73
2020/12/02 11:41:09;;;;;;;35.35;21.83;;;;;;;;;;5056078;28;20043;-73
2020/12/02 11:43:41;;;;;;;30.08;20.23;;;;;;;;;;5055022;28;20430;-72
2020/12/02 11:46:12;;;;;;;32.28;19.90;;;;;;;;;;5052254;28;20017;-65
2020/12/02 11:48:44;;;;;;;28.60;19.17;;;;;;;;;;5055207;28;20116;-65
2020/12/02 11:51:24;;;;;;;35.20;22.38;;;;;;;;;;5037899;28;20060;-66
2020/12/02 11:53:56;;;;;;;41.33;25.58;;;;;;;;;;5054366;28;20037;-66
2020/12/02 11:56:27;;;;;;;37.03;22.95;;;;;;;;;;5054827;28;20079;-67
2020/12/02 11:59:01;;;;;;;42.55;28.70;;;;;;;;;;5054939;28;20028;-66
2020/12/02 12:01:46;;;;;;;36.17;23.52;;;;;;;;;;5054324;28;20089;-69
2020/12/02 12:04:22;;;;;;;38.72;24.85;;;;;;;;;;5055025;28;20025;-70
2020/12/02 12:06:51;;;;;;;56.00;36.30;;;;;;;;;;5054445;28;20114;-70
2020/12/02 12:09:31;;;;;;;44.33;28.45;;;;;;;;;;5035806;28;20146;-70
2020/12/02 12:11:57;;;;;;;;;;;;;;;;;;5049837;28;20471;-70
2020/12/02 12:14:37;;;;;;;36.25;23.80;;;;;;;;;;5055573;28;19950;-70
2020/12/02 12:17:03;;;;;;;43.97;26.65;;;;;;;;;;5055224;28;20036;-70
2020/12/02 12:19:34;;;;;;;47.17;24.23;;;;;;;;;;5054590;28;20017;-70
2020/12/02 12:22:04;;;;;;;39.40;26.38;;;;;;;;;;5054693;28;20387;-62
2020/12/02 12:24:29;;;;;;;37.50;23.95;;;;;;;;;;5055280;28;20017;-61
2020/12/02 12:26:55;;;;;;;44.88;25.55;;;;;;;;;;5054675;28;20502;-61
2020/12/02 12:29:21;;;;;;;39.35;23.10;;;;;;;;;;5055195;28;20029;-61
2020/12/02 12:31:52;;;;;;;35.17;22.67;;;;;;;;;;5055050;28;20029;-61
2020/12/02 12:34:23;;;;;;;31.42;22.25;;;;;;;;;;5055063;28;20118;-62
2020/12/02 12:36:51;;;;;;;45.58;29.15;;;;;;;;;;5055068;28;20029;-62
2020/12/02 12:39:27;;;;;;;40.00;28.00;;;;;;;;;;5054717;28;20028;-60
2020/12/02 12:41:53;;;;;;;54.72;32.03;;;;;;;;;;5054507;28;20500;-61
2020/12/02 12:44:21;;;;;;;43.80;25.55;;;;;;;;;;5054699;28;20104;-61
2020/12/02 12:46:53;;;;;;;45.55;33.03;;;;;;;;;;5054891;28;20025;-61
2020/12/02 12:49:18;;;;;;;47.83;31.30;;;;;;;;;;5054597;28;20033;-61
2020/12/02 12:51:44;;;;;;;39.42;25.98;;;;;;;;;;5054470;28;20025;-60
2020/12/02 12:54:12;;;;;;;37.33;22.95;;;;;;;;;;5054567;28;20029;-61
2020/12/02 12:56:39;;;;;;;46.65;28.50;;;;;;;;;;5054275;28;20383;-61
2020/12/02 12:59:04;;;;;;;74.03;41.63;;;;;;;;;;5054536;28;20033;-61
2020/12/02 13:01:30;;;;;;;47.72;30.42;;;;;;;;;;5053914;28;20035;-61
2020/12/02 13:03:56;;;;;;;55.83;35.25;;;;;;;;;;5054610;28;20021;-61
2020/12/02 13:06:31;;;;;;;42.10;26.13;;;;;;;;;;5054366;28;20037;-61
2020/12/02 13:09:09;;;;;;;40.85;25.40;;;;;;;;;;5053942;28;20078;-61
2020/12/02 13:11:40;;;;;;;38.28;24.17;;;;;;;;;;5052810;28;20460;-61
2020/12/02 13:14:09;;;;;;;40.90;25.95;;;;;;;;;;5053835;28;20079;-61
2020/12/02 13:16:45;;;;;;;34.20;22.95;;;;;;;;;;5052385;28;20423;-62
2020/12/02 13:19:25;;;;;;;37.00;21.95;;;;;;;;;;5053770;28;20027;-61
2020/12/02 13:21:55;;;;;;;35.17;23.20;;;;;;;;;;5053801;28;20025;-61
2020/12/02 13:24:30;;;;;;;33.08;21.30;;;;;;;;;;5053647;28;20025;-62
2020/12/02 13:27:09;;;;;;;35.10;23.23;;;;;;;;;;5053656;28;20048;-61
2020/12/02 13:29:37;;;;;;;32.97;22.17;;;;;;;;;;5053553;28;20025;-61
2020/12/02 13:32:02;;;;;;;30.42;20.85;;;;;;;;;;5053527;28;20414;-61
2020/12/02 13:34:28;;;;;;;32.38;21.88;;;;;;;;;;5053440;28;20025;-61
2020/12/02 13:36:53;;;;;;;35.92;23.63;;;;;;;;;;5035422;28;20430;-62
2020/12/02 13:39:19;;;;;;;34.22;22.02;;;;;;;;;;5052622;28;20040;-61
2020/12/02 13:41:52;;;;;;;32.25;22.38;;;;;;;;;;5053417;28;20467;-62
2020/12/02 13:44:22;;;;;;;32.83;22.13;;;;;;;;;;5053256;28;20156;-62
2020/12/02 13:46:48;;;;;;;;;;;;;;;;;;5053764;28;20454;-61
2020/12/02 13:49:13;;;;;;;31.63;20.90;;;;;;;;;;5051632;28;19944;-61
2020/12/02 13:51:58;;;;;;;32.92;23.02;;;;;;;;;;5053372;28;20302;-61
2020/12/02 13:54:24;;;;;;;28.98;20.42;;;;;;;;;;5052721;28;20109;-61
2020/12/02 13:56:58;;;;;;;33.80;22.23;;;;;;;;;;5052195;28;20538;-61
2020/12/02 13:59:36;;;;;;;32.92;22.98;;;;;;;;;;5053558;28;20053;-61
2020/12/02 14:02:08;;;;;;;34.95;24.48;;;;;;;;;;5053124;28;20033;-61
2020/12/02 14:04:56;;;;;;;64.20;40.30;;;;;;;;;;5053670;28;20021;-61
2020/12/02 14:07:22;;;;;;;30.75;20.88;;;;;;;;;;5052088;28;20036;-62
2020/12/02 14:09:50;;;;;;;36.22;23.30;;;;;;;;;;5053409;28;20031;-61
2020/12/02 14:12:21;;;;;;;37.38;28.55;;;;;;;;;;5053096;28;20029;-61
2020/12/02 14:14:47;;;;;;;42.92;29.83;;;;;;;;;;5053186;28;20120;-61
2020/12/02 14:17:15;;;;;;;48.28;36.40;;;;;;;;;;5053043;28;20113;-61
2020/12/02 14:19:41;;;;;;;47.38;35.80;;;;;;;;;;5053452;28;20021;-62
2020/12/02 14:22:11;;;;;;;47.72;36.78;;;;;;;;;;5053427;28;20017;-61
2020/12/02 14:24:37;;;;;;;39.22;28.83;;;;;;;;;;5053219;28;20025;-62
2020/12/02 14:27:02;;;;;;;54.08;34.45;;;;;;;;;;5053453;28;20375;-62
2020/12/02 14:29:28;;;;;;;43.00;30.30;;;;;;;;;;5051822;28;20037;-62
2020/12/02 14:31:53;;;;;;;36.33;24.98;;;;;;;;;;5052923;28;20052;-61
2020/12/02 14:34:19;;;;;;;35.75;25.45;;;;;;;;;;5053303;28;20492;-62
2020/12/02 14:36:45;;;;;;;36.28;23.75;;;;;;;;;;5053116;28;20104;-61
2020/12/02 14:39:11;;;;;;;34.33;24.08;;;;;;;;;;5052979;28;20029;-61
2020/12/02 14:41:36;;;;;;;49.28;30.13;;;;;;;;;;5051686;28;20017;-62